Time;durP1;ratioP1;P1;durP2;ratioP2;P2;SDS_P1;SDS_P2;PMS_P1;PMS_P2;Temp;Humidity;BMP_temperature;BMP_pressure;BME280_temperature;BME280_humidity;BME280_pressure;Samples;Min_cycle;Max_cycle;Signal;HPM_P1;HPM_P2
2023/04/04 00:00:06;;;;;;;3.33;0.70;;;11.50;93.50;;;;;;7370355;19;20375;-72
2023/04/04 00:02:32;;;;;;;4.05;0.80;;;11.50;93.60;;;;;;7403410;19;19941;-72
2023/04/04 00:04:58;;;;;;;5.90;0.80;;;11.50;93.60;;;;;;7404486;19;19919;-73
2023/04/04 00:07:24;;;;;;;5.47;0.63;;;11.50;93.50;;;;;;7399251;19;19919;-71
2023/04/04 00:09:49;;;;;;;4.18;1.00;;;11.40;93.50;;;;;;7403929;19;19928;-73
2023/04/04 00:12:16;;;;;;;4.05;0.85;;;11.40;93.50;;;;;;7399901;19;19921;-72
2023/04/04 00:14:42;;;;;;;5.38;1.27;;;11.40;93.40;;;;;;7398637;19;20276;-72
2023/04/04 00:17:08;;;;;;;2.83;0.60;;;11.40;93.40;;;;;;7399973;19;19914;-73
2023/04/04 00:19:34;;;;;;;3.75;0.57;;;11.40;93.40;;;;;;7404741;19;19923;-72
2023/04/04 00:21:59;;;;;;;3.58;0.77;;;11.40;93.20;;;;;;7400731;19;19918;-73
2023/04/04 00:24:25;;;;;;;4.00;0.82;;;11.30;93.20;;;;;;7400837;19;19930;-71
2023/04/04 00:26:51;;;;;;;4.65;0.93;;;11.30;93.30;;;;;;7403404;19;19919;-72
2023/04/04 00:29:20;;;;;;;3.67;0.70;;;11.30;93.90;;;;;;7398474;19;19906;-72
2023/04/04 00:31:46;;;;;;;4.28;0.93;;;11.40;93.80;;;;;;7403570;19;19921;-72
2023/04/04 00:34:11;;;;;;;4.93;0.73;;;11.30;93.80;;;;;;7403749;19;19974;-71
2023/04/04 00:36:37;;;;;;;3.88;0.52;;;11.30;94.10;;;;;;7403108;19;19933;-72
2023/04/04 00:39:03;;;;;;;3.83;0.52;;;11.30;93.90;;;;;;7403793;19;19921;-72
2023/04/04 00:41:29;;;;;;;3.15;0.60;;;11.30;93.80;;;;;;7402512;19;19911;-72
2023/04/04 00:43:55;;;;;;;4.60;0.50;;;11.20;93.80;;;;;;7403959;19;19915;-72
2023/04/04 00:46:22;;;;;;;3.58;0.63;;;11.20;93.90;;;;;;7398379;19;19931;-71
2023/04/04 00:48:50;;;;;;;5.63;0.80;;;11.20;94.00;;;;;;7402329;19;19923;-71
2023/04/04 00:51:15;;;;;;;3.63;0.90;;;11.20;93.90;;;;;;7399580;19;20272;-70
2023/04/04 00:53:45;;;;;;;3.85;0.75;;;11.10;94.00;;;;;;7400053;19;19918;-71
2023/04/04 00:56:12;;;;;;;5.35;0.70;;;11.20;94.30;;;;;;7401275;19;19915;-73
2023/04/04 00:58:38;;;;;;;4.95;0.80;;;11.20;94.90;;;;;;7400685;19;19911;-72
2023/04/04 01:01:05;;;;;;;4.05;0.60;;;11.20;95.80;;;;;;7376848;19;19949;-72
2023/04/04 01:03:32;;;;;;;4.40;0.70;;;11.20;96.10;;;;;;7401400;19;19926;-72
2023/04/04 01:05:59;;;;;;;7.57;0.70;;;11.20;97.10;;;;;;7401883;19;20338;-73
2023/04/04 01:08:28;;;;;;;5.32;0.70;;;11.30;97.50;;;;;;7400193;19;19918;-72
2023/04/04 01:10:55;;;;;;;5.82;1.10;;;11.40;97.40;;;;;;7404154;19;20339;-72
2023/04/04 01:13:21;;;;;;;5.00;0.95;;;11.40;97.80;;;;;;7395877;19;20334;-72
2023/04/04 01:15:48;;;;;;;2.97;1.10;;;11.30;98.10;;;;;;7402547;19;20260;-72
2023/04/04 01:18:17;;;;;;;8.98;1.10;;;11.50;98.60;;;;;;7399535;19;19925;-72
2023/04/04 01:21:17;;;;;;;4.72;1.00;;;11.40;98.60;;;;;;7402577;19;19922;-73
2023/04/04 01:24:03;;;;;;;7.70;1.13;;;11.40;98.80;;;;;;7402002;19;19918;-72
2023/04/04 01:26:29;;;;;;;4.80;0.88;;;11.50;98.70;;;;;;7400028;19;19915;-73
2023/04/04 01:28:57;;;;;;;3.67;0.88;;;11.40;98.50;;;;;;7406422;19;19938;-72
2023/04/04 01:31:48;;;;;;;6.85;1.15;;;11.40;98.60;;;;;;7402326;19;19949;-72
2023/04/04 01:34:21;;;;;;;6.53;1.60;;;11.50;98.80;;;;;;7405016;19;20252;-72
2023/04/04 01:36:52;;;;;;;5.45;1.00;;;11.40;99.00;;;;;;7407260;19;19910;-71
2023/04/04 01:39:27;;;;;;;2.97;0.75;;;11.40;99.60;;;;;;7406176;19;19914;-72
2023/04/04 01:41:55;;;;;;;6.20;1.08;;;11.40;99.90;;;;;;7407995;19;20345;-72
2023/04/04 01:44:21;;;;;;;5.88;1.23;;;11.50;99.90;;;;;;7406717;19;19962;-72
2023/04/04 01:46:53;;;;;;;4.20;0.90;;;11.50;99.90;;;;;;7405657;19;20330;-71
2023/04/04 01:49:20;;;;;;;5.63;1.00;;;11.50;99.90;;;;;;7406384;19;19926;-72
2023/04/04 01:51:46;;;;;;;6.13;0.98;;;11.40;99.90;;;;;;7408827;19;19920;-72
2023/04/04 01:54:12;;;;;;;4.75;0.90;;;11.30;99.90;;;;;;7406454;19;19937;-73
2023/04/04 01:56:38;;;;;;;5.22;1.10;;;11.30;99.90;;;;;;7406912;19;19922;-72
2023/04/04 01:59:03;;;;;;;9.00;1.48;;;11.30;99.90;;;;;;7406646;19;19911;-71
2023/04/04 02:01:29;;;;;;;8.63;1.45;;;11.30;99.90;;;;;;7407437;19;20649;-73
2023/04/04 02:03:57;;;;;;;7.75;1.70;;;11.30;99.90;;;;;;7407004;19;19919;-71
2023/04/04 02:06:23;;;;;;;8.93;2.03;;;11.20;99.90;;;;;;7407709;19;19933;-72
2023/04/04 02:08:48;;;;;;;4.80;1.40;;;11.20;99.90;;;;;;7406866;19;19978;-71
2023/04/04 02:11:14;;;;;;;7.75;1.67;;;11.20;99.90;;;;;;7405777;19;19932;-72
2023/04/04 02:13:43;;;;;;;6.28;1.90;;;11.20;99.90;;;;;;7408469;19;20284;-72
2023/04/04 02:16:09;;;;;;;5.80;1.77;;;11.20;99.90;;;;;;7406430;19;20319;-72
2023/04/04 02:18:35;;;;;;;6.88;1.35;;;11.10;99.90;;;;;;7407006;19;19914;-71
2023/04/04 02:21:01;;;;;;;5.10;1.10;;;11.00;99.90;;;;;;7354619;19;19944;-71
2023/04/04 02:23:27;;;;;;;6.93;1.48;;;11.10;99.90;;;;;;7405238;19;20319;-71
2023/04/04 02:25:53;;;;;;;8.60;1.70;;;11.10;99.90;;;;;;7404509;19;19914;-71
2023/04/04 02:28:18;;;;;;;8.13;1.40;;;11.10;99.90;;;;;;7404082;19;19922;-70
2023/04/04 02:30:45;;;;;;;3.67;0.90;;;11.00;99.90;;;;;;7355427;19;20450;-70
2023/04/04 02:33:10;;;;;;;5.85;1.02;;;11.10;99.90;;;;;;7401504;19;19914;-69
2023/04/04 02:35:36;;;;;;;8.50;1.30;;;11.10;99.90;;;;;;7403551;19;19923;-70
2023/04/04 02:38:03;;;;;;;2.75;0.88;;;11.20;99.90;;;;;;7404625;19;20308;-72
2023/04/04 02:40:29;;;;;;;4.05;0.90;;;11.20;99.90;;;;;;7406957;19;19989;-70
2023/04/04 02:42:55;;;;;;;3.95;1.20;;;11.20;99.90;;;;;;7406008;19;19943;-71
2023/04/04 02:45:21;;;;;;;3.70;0.82;;;11.20;99.90;;;;;;7403108;19;19923;-70
2023/04/04 02:47:51;;;;;;;7.35;1.10;;;11.30;99.90;;;;;;7406808;19;19931;-70
2023/04/04 02:50:17;;;;;;;6.63;1.27;;;11.20;99.90;;;;;;7403432;19;19925;-69
2023/04/04 02:52:43;;;;;;;6.03;1.30;;;11.30;99.90;;;;;;7403873;19;19918;-70
2023/04/04 02:55:10;;;;;;;5.15;1.20;;;11.30;99.90;;;;;;7403680;19;20258;-70
2023/04/04 02:57:36;;;;;;;5.15;1.27;;;11.30;99.90;;;;;;7405725;19;19910;-70
2023/04/04 03:00:03;;;;;;;9.30;1.35;;;11.30;99.90;;;;;;7403877;19;19946;-69
2023/04/04 03:02:29;;;;;;;5.70;1.10;;;11.30;99.90;;;;;;7403619;19;20339;-71
2023/04/04 03:04:55;;;;;;;5.78;1.10;;;11.20;99.90;;;;;;7406405;19;19937;-70
2023/04/04 03:07:23;;;;;;;4.50;0.90;;;11.20;99.90;;;;;;7404734;19;19918;-70
2023/04/04 03:09:49;;;;;;;3.63;0.95;;;11.30;99.90;;;;;;7404858;19;19967;-71
2023/04/04 03:12:19;;;;;;;3.42;1.02;;;11.30;99.90;;;;;;7402279;19;19926;-70
2023/04/04 03:14:45;;;;;;;3.50;0.95;;;11.30;99.90;;;;;;7402376;19;19944;-71
2023/04/04 03:17:13;;;;;;;8.15;1.30;;;11.30;99.90;;;;;;7404674;19;19910;-71
2023/04/04 03:19:39;;;;;;;3.88;0.85;;;11.30;99.90;;;;;;7403963;19;20342;-71
2023/04/04 03:22:06;;;;;;;4.95;1.02;;;11.30;99.90;;;;;;7403303;19;19944;-71
2023/04/04 03:24:32;;;;;;;7.93;1.20;;;11.20;99.90;;;;;;7404117;19;19915;-72
2023/04/04 03:27:00;;;;;;;4.20;0.82;;;11.30;99.90;;;;;;7351947;19;19930;-70
2023/04/04 03:29:26;;;;;;;7.03;1.25;;;11.30;99.90;;;;;;7404104;19;20708;-71
2023/04/04 03:31:52;;;;;;;7.60;1.40;;;11.20;99.90;;;;;;7405070;19;19990;-70
2023/04/04 03:34:18;;;;;;;4.50;1.88;;;11.20;99.90;;;;;;7403425;19;20273;-70
2023/04/04 03:36:45;;;;;;;6.65;1.10;;;11.20;99.90;;;;;;7404021;19;19947;-70
2023/04/04 03:39:11;;;;;;;6.20;1.50;;;11.20;99.90;;;;;;7405303;19;20255;-70
2023/04/04 03:41:37;;;;;;;4.95;0.98;;;11.20;99.90;;;;;;7405434;19;19929;-70
2023/04/04 03:44:04;;;;;;;4.82;1.10;;;11.30;99.90;;;;;;7404454;19;19923;-71
2023/04/04 03:46:30;;;;;;;5.57;1.50;;;11.20;99.90;;;;;;7403028;19;20318;-71
2023/04/04 03:48:56;;;;;;;7.18;1.60;;;11.20;99.90;;;;;;7406385;19;19907;-71
2023/04/04 03:51:26;;;;;;;5.50;1.30;;;11.20;99.90;;;;;;7401734;19;19935;-71
2023/04/04 03:53:51;;;;;;;3.70;1.23;;;11.10;99.90;;;;;;7403219;19;19915;-71
2023/04/04 03:56:18;;;;;;;5.40;1.40;;;11.00;99.90;;;;;;7403577;19;19978;-71
2023/04/04 03:58:44;;;;;;;5.88;1.40;;;10.90;99.90;;;;;;7404831;19;20354;-70
2023/04/04 04:01:10;;;;;;;7.38;1.70;;;10.80;99.90;;;;;;7403492;19;19919;-71
2023/04/04 04:03:36;;;;;;;6.22;1.40;;;10.80;99.90;;;;;;7403455;19;19915;-71
2023/04/04 04:06:02;;;;;;;7.25;1.55;;;10.70;99.90;;;;;;7401777;19;20908;-70
2023/04/04 04:08:28;;;;;;;5.90;1.65;;;10.70;99.90;;;;;;7401593;19;19923;-70
2023/04/04 04:10:54;;;;;;;8.00;2.47;;;10.60;99.90;;;;;;7402922;19;19925;-71
2023/04/04 04:13:20;;;;;;;7.47;1.92;;;10.60;99.90;;;;;;7401553;19;19919;-71
2023/04/04 04:15:46;;;;;;;7.22;1.90;;;10.70;99.90;;;;;;7402747;19;19945;-71
2023/04/04 04:18:11;;;;;;;7.88;2.15;;;10.60;99.90;;;;;;7400442;19;19922;-71
2023/04/04 04:20:37;;;;;;;5.97;1.80;;;10.60;99.90;;;;;;7403652;19;19978;-70
2023/04/04 04:23:03;;;;;;;8.68;2.33;;;10.60;99.90;;;;;;7400671;19;20540;-70
2023/04/04 04:25:29;;;;;;;5.72;2.70;;;10.80;99.90;;;;;;7401766;19;19919;-71
2023/04/04 04:27:58;;;;;;;5.60;2.50;;;10.80;99.90;;;;;;7403048;19;19914;-70
2023/04/04 04:30:23;;;;;;;5.53;2.15;;;10.80;99.90;;;;;;7403374;19;19946;-71
2023/04/04 04:32:49;;;;;;;4.65;1.92;;;10.80;99.90;;;;;;7402612;19;19921;-71
2023/04/04 04:35:15;;;;;;;6.53;2.47;;;10.80;97.70;;;;;;7398172;19;19924;-70
2023/04/04 04:37:41;;;;;;;7.43;1.80;;;10.80;97.40;;;;;;7402330;19;19918;-71
2023/04/04 04:40:08;;;;;;;6.38;1.83;;;10.80;99.10;;;;;;7401182;19;19970;-70
2023/04/04 04:42:33;;;;;;;10.63;2.53;;;10.80;98.30;;;;;;7400752;19;20247;-71
2023/04/04 04:44:59;;;;;;;5.68;2.10;;;10.80;98.30;;;;;;7403191;19;19957;-71
2023/04/04 04:47:25;;;;;;;6.05;2.35;;;10.70;98.50;;;;;;7397197;19;20579;-71
2023/04/04 04:49:51;;;;;;;9.00;1.98;;;10.50;98.60;;;;;;7402088;19;19918;-71
2023/04/04 04:52:18;;;;;;;4.97;1.88;;;10.40;98.70;;;;;;7397470;19;19949;-70
2023/04/04 04:54:43;;;;;;;7.13;1.88;;;10.40;98.10;;;;;;7401919;19;20002;-70
2023/04/04 04:57:09;;;;;;;8.60;2.00;;;10.30;98.10;;;;;;7400376;19;20312;-71
2023/04/04 04:59:35;;;;;;;5.63;1.70;;;10.40;97.90;;;;;;7404470;19;19919;-71
2023/04/04 05:02:01;;;;;;;4.88;1.65;;;10.70;96.80;;;;;;7396626;19;19942;-71
2023/04/04 05:04:27;;;;;;;7.70;2.00;;;10.80;96.40;;;;;;7399863;19;19915;-70
2023/04/04 05:06:53;;;;;;;4.22;1.70;;;10.70;96.50;;;;;;7402193;19;20532;-70
2023/04/04 05:09:19;;;;;;;6.65;1.58;;;10.70;96.10;;;;;;7400160;19;19918;-71
2023/04/04 05:11:45;;;;;;;4.45;1.48;;;10.80;96.10;;;;;;7399935;19;19915;-70
2023/04/04 05:14:13;;;;;;;5.38;1.80;;;10.90;96.10;;;;;;7400065;19;19926;-70
2023/04/04 05:16:38;;;;;;;7.80;1.88;;;10.70;96.20;;;;;;7398270;19;19918;-71
2023/04/04 05:19:04;;;;;;;4.75;1.73;;;10.80;96.10;;;;;;7401937;19;19918;-70
2023/04/04 05:21:30;;;;;;;9.80;2.08;;;10.90;95.60;;;;;;7403133;19;19918;-71
2023/04/04 05:23:57;;;;;;;8.95;1.83;;;11.00;95.20;;;;;;7403313;19;19926;-71
2023/04/04 05:26:23;;;;;;;6.20;1.50;;;10.90;95.00;;;;;;7398540;19;19972;-70
2023/04/04 05:28:49;;;;;;;5.75;2.05;;;10.90;95.10;;;;;;7397157;19;19974;-70
2023/04/04 05:31:15;;;;;;;6.15;1.70;;;10.90;95.10;;;;;;7396727;19;20503;-71
2023/04/04 05:33:40;;;;;;;10.38;1.80;;;10.80;94.70;;;;;;7401149;19;19919;-71
2023/04/04 05:36:06;;;;;;;4.13;1.95;;;10.90;94.60;;;;;;7399295;19;19984;-71
2023/04/04 05:38:32;;;;;;;6.25;1.65;;;10.80;94.60;;;;;;7400164;19;19918;-71
2023/04/04 05:40:58;;;;;;;8.30;2.15;;;10.70;94.70;;;;;;7401600;19;19928;-71
2023/04/04 05:43:23;;;;;;;5.07;1.95;;;10.70;95.00;;;;;;7399346;19;19923;-71
2023/04/04 05:45:49;;;;;;;8.20;2.30;;;10.80;95.30;;;;;;7401552;19;19921;-71
2023/04/04 05:48:15;;;;;;;5.38;2.45;;;10.80;95.60;;;;;;7397943;19;19918;-71
2023/04/04 05:50:44;;;;;;;5.60;2.08;;;10.90;95.50;;;;;;7398550;19;20343;-71
2023/04/04 05:53:12;;;;;;;5.82;1.73;;;10.90;94.10;;;;;;7399390;19;19921;-70
2023/04/04 05:55:37;;;;;;;;;;;11.00;93.20;;;;;;7404536;19;19931;-71
2023/04/04 05:58:04;;;;;;;6.47;2.20;;;11.00;93.00;;;;;;7347083;19;20276;-71
2023/04/04 06:00:31;;;;;;;5.72;1.80;;;11.00;92.90;;;;;;7397875;19;19918;-72
2023/04/04 06:02:57;;;;;;;6.10;2.22;;;11.00;93.10;;;;;;7347811;19;19922;-71
2023/04/04 06:05:24;;;;;;;5.93;1.70;;;11.00;93.00;;;;;;7396786;19;19951;-70
2023/04/04 06:07:50;;;;;;;6.90;2.33;;;11.10;93.10;;;;;;7397767;19;19933;-70
2023/04/04 06:10:15;;;;;;;6.07;1.70;;;11.00;93.40;;;;;;7399909;19;19925;-70
2023/04/04 06:12:41;;;;;;;5.82;2.03;;;10.90;93.60;;;;;;7396774;19;19911;-71
2023/04/04 06:15:07;;;;;;;7.07;2.33;;;10.80;93.70;;;;;;7401982;19;19919;-70
2023/04/04 06:17:33;;;;;;;5.93;2.13;;;10.80;93.80;;;;;;7406550;19;19922;-70
2023/04/04 06:20:00;;;;;;;8.63;2.15;;;10.80;94.00;;;;;;7407703;19;19946;-71
2023/04/04 06:22:26;;;;;;;8.23;2.13;;;10.80;93.90;;;;;;7403269;19;19914;-72
2023/04/04 06:24:52;;;;;;;9.02;2.00;;;10.80;93.90;;;;;;7406319;19;19920;-70
2023/04/04 06:27:18;;;;;;;6.32;1.75;;;10.90;93.80;;;;;;7403398;19;19922;-70
2023/04/04 06:29:43;;;;;;;5.85;1.70;;;10.90;93.30;;;;;;7405827;19;19922;-71
2023/04/04 06:32:09;;;;;;;7.78;1.60;;;11.10;92.80;;;;;;7404308;19;20375;-71
2023/04/04 06:34:35;;;;;;;4.13;1.55;;;11.20;92.40;;;;;;7397104;19;19935;-71
2023/04/04 06:37:02;;;;;;;4.35;1.75;;;11.40;91.60;;;;;;7406414;19;20236;-72
2023/04/04 06:39:30;;;;;;;5.75;1.50;;;11.50;91.50;;;;;;7404179;19;19935;-70
2023/04/04 06:41:55;;;;;;;5.20;1.40;;;11.50;91.20;;;;;;7401759;19;20342;-70
2023/04/04 06:44:21;;;;;;;5.15;2.38;;;11.60;91.10;;;;;;7400823;19;22226;-71
2023/04/04 06:46:47;;;;;;;7.60;2.17;;;11.60;91.20;;;;;;7398309;19;20250;-70
2023/04/04 06:49:13;;;;;;;4.82;1.55;;;11.60;91.30;;;;;;7400686;19;19919;-72
2023/04/04 06:51:40;;;;;;;7.00;2.50;;;11.60;91.10;;;;;;7396826;19;20344;-72
2023/04/04 06:54:06;;;;;;;5.20;1.65;;;11.70;91.20;;;;;;7398462;19;19926;-71
2023/04/04 06:56:32;;;;;;;5.30;1.70;;;11.70;91.00;;;;;;7407263;19;19942;-71
2023/04/04 06:58:57;;;;;;;6.65;1.90;;;11.80;90.60;;;;;;7403757;19;19974;-70
2023/04/04 07:01:23;;;;;;;4.57;1.73;;;11.80;90.40;;;;;;7345071;19;19923;-71
2023/04/04 07:03:53;;;;;;;4.95;1.50;;;11.90;90.40;;;;;;7390242;19;19923;-70
2023/04/04 07:06:23;;;;;;;4.43;1.25;;;11.90;90.10;;;;;;7398252;19;19957;-71
2023/04/04 07:08:49;;;;;;;6.53;1.40;;;12.10;88.40;;;;;;7402252;19;19918;-71
2023/04/04 07:11:15;;;;;;;4.43;1.50;;;12.20;87.80;;;;;;7398228;19;20842;-72
2023/04/04 07:13:42;;;;;;;2.72;1.00;;;12.30;87.20;;;;;;7383505;19;19915;-70
2023/04/04 07:16:08;;;;;;;5.60;1.55;;;12.40;86.60;;;;;;7397156;19;19914;-71
2023/04/04 07:18:33;;;;;;;6.13;1.40;;;12.40;86.80;;;;;;7399328;19;20371;-69
2023/04/04 07:20:59;;;;;;;3.78;1.33;;;12.40;86.90;;;;;;7391955;19;19918;-72
2023/04/04 07:23:26;;;;;;;3.65;1.27;;;12.50;86.30;;;;;;7383963;19;19943;-71
2023/04/04 07:25:53;;;;;;;5.90;1.52;;;12.50;86.10;;;;;;7400585;19;19934;-71
2023/04/04 07:28:18;;;;;;;5.00;1.30;;;12.60;85.80;;;;;;7402826;19;19919;-72
2023/04/04 07:30:44;;;;;;;5.18;1.50;;;12.70;85.10;;;;;;7404345;19;19925;-72
2023/04/04 07:33:10;;;;;;;6.72;1.45;;;12.80;84.10;;;;;;7401072;19;19923;-71
2023/04/04 07:35:36;;;;;;;4.65;1.13;;;12.80;84.20;;;;;;7402462;19;20391;-71
2023/04/04 07:38:03;;;;;;;4.93;1.15;;;12.90;83.60;;;;;;7404041;19;19998;-71
2023/04/04 07:40:29;;;;;;;5.13;1.30;;;12.90;83.00;;;;;;7405792;19;19919;-71
2023/04/04 07:42:55;;;;;;;5.53;1.52;;;13.00;81.80;;;;;;7404704;19;19906;-71
2023/04/04 07:45:23;;;;;;;4.20;1.10;;;13.10;79.80;;;;;;7403324;19;19934;-72
2023/04/04 07:47:49;;;;;;;3.40;1.35;;;13.10;79.80;;;;;;7403139;19;19919;-71
2023/04/04 07:50:15;;;;;;;5.45;1.25;;;13.20;80.00;;;;;;7403216;19;19919;-73
2023/04/04 07:52:47;;;;;;;4.78;1.17;;;13.20;79.90;;;;;;7401689;19;20338;-71
2023/04/04 07:55:12;;;;;;;4.55;1.33;;;13.40;79.20;;;;;;7398544;19;19910;-72
2023/04/04 07:57:39;;;;;;;3.28;1.25;;;13.50;77.80;;;;;;7401178;19;19911;-70
2023/04/04 08:00:08;;;;;;;3.72;1.00;;;13.50;77.70;;;;;;7402527;19;19930;-72
2023/04/04 08:02:35;;;;;;;4.40;0.88;;;13.50;78.20;;;;;;7404066;19;19933;-72
2023/04/04 08:05:02;;;;;;;2.92;1.00;;;13.50;78.30;;;;;;7400584;19;19926;-71
2023/04/04 08:07:27;;;;;;;2.70;0.95;;;13.50;78.00;;;;;;7401746;19;19934;-71
2023/04/04 08:09:53;;;;;;;3.97;1.40;;;13.60;79.00;;;;;;7392595;19;20026;-71
2023/04/04 08:12:19;;;;;;;6.25;1.98;;;13.60;80.10;;;;;;7389414;19;20293;-71
2023/04/04 08:14:45;;;;;;;5.28;1.38;;;13.70;80.10;;;;;;7369213;19;19978;-72
2023/04/04 08:17:11;;;;;;;6.03;1.38;;;13.70;81.00;;;;;;7400370;19;20454;-71
2023/04/04 08:19:38;;;;;;;5.00;1.70;;;13.60;80.90;;;;;;7370445;19;20386;-73
2023/04/04 08:22:04;;;;;;;8.18;1.55;;;13.60;81.50;;;;;;7389042;19;19950;-72
2023/04/04 08:24:30;;;;;;;6.97;1.58;;;13.60;82.50;;;;;;7393577;19;19922;-72
2023/04/04 08:26:55;;;;;;;6.28;1.80;;;13.70;83.80;;;;;;7399722;19;19934;-72
2023/04/04 08:29:21;;;;;;;5.30;1.63;;;13.70;84.00;;;;;;7376470;19;19926;-71
2023/04/04 08:31:47;;;;;;;6.10;1.92;;;13.70;84.00;;;;;;7401671;19;19949;-71
2023/04/04 08:34:13;;;;;;;3.90;1.40;;;13.70;84.20;;;;;;7393075;19;19918;-72
2023/04/04 08:36:39;;;;;;;5.43;1.80;;;14.10;84.40;;;;;;7395888;19;19918;-73
2023/04/04 08:39:05;;;;;;;6.15;2.03;;;16.20;80.20;;;;;;7394961;19;19974;-74
2023/04/04 08:41:34;;;;;;;6.50;2.38;;;17.90;76.70;;;;;;7397949;19;19922;-74
2023/04/04 08:44:03;;;;;;;6.03;1.92;;;18.90;73.50;;;;;;7397821;19;19947;-74
2023/04/04 08:46:29;;;;;;;8.40;2.17;;;19.60;72.40;;;;;;7398892;19;19918;-74
2023/04/04 08:48:57;;;;;;;9.85;2.58;;;18.80;71.20;;;;;;7399971;19;19971;-73
2023/04/04 08:51:25;;;;;;;8.15;2.60;;;17.40;73.70;;;;;;7392304;19;20352;-73
2023/04/04 08:53:52;;;;;;;7.95;2.75;;;16.60;78.90;;;;;;7377750;19;20750;-73
2023/04/04 08:56:17;;;;;;;7.35;1.92;;;17.30;78.80;;;;;;7399657;19;19906;-73
2023/04/04 08:58:43;;;;;;;8.88;2.80;;;18.50;78.70;;;;;;7402089;19;19911;-73
2023/04/04 09:01:09;;;;;;;9.77;3.00;;;19.40;77.20;;;;;;7396437;19;19918;-73
2023/04/04 09:03:36;;;;;;;9.00;2.40;;;20.50;73.40;;;;;;7401169;19;19914;-74
2023/04/04 09:06:03;;;;;;;7.18;2.70;;;21.00;71.30;;;;;;7388814;19;19918;-74
2023/04/04 09:08:29;;;;;;;8.95;3.05;;;21.70;70.10;;;;;;7397561;19;19926;-74
2023/04/04 09:10:56;;;;;;;6.88;2.97;;;22.10;68.50;;;;;;7396576;19;19907;-74
2023/04/04 09:13:22;;;;;;;4.35;2.20;;;23.00;66.90;;;;;;7396820;19;19919;-73
2023/04/04 09:15:50;;;;;;;7.95;2.97;;;22.00;68.20;;;;;;7393790;19;19914;-73
2023/04/04 09:18:16;;;;;;;6.35;3.20;;;23.00;66.00;;;;;;7403424;19;19911;-74
2023/04/04 09:20:51;;;;;;;4.82;2.05;;;23.60;64.90;;;;;;7398259;19;19915;-73
2023/04/04 09:23:19;;;;;;;7.03;3.55;;;23.90;63.60;;;;;;7358091;19;19918;-73
2023/04/04 09:25:50;;;;;;;7.25;3.00;;;22.60;66.20;;;;;;7397365;19;19955;-74
2023/04/04 09:28:17;;;;;;;9.52;3.05;;;21.80;66.20;;;;;;7392796;19;20315;-74
2023/04/04 09:30:46;;;;;;;7.38;2.60;;;21.80;69.10;;;;;;7398779;19;19926;-72
2023/04/04 09:33:14;;;;;;;8.70;2.38;;;21.30;67.70;;;;;;7397013;19;19923;-73
2023/04/04 09:36:16;;;;;;;6.97;3.05;;;21.60;68.90;;;;;;7399616;19;19914;-74
2023/04/04 09:38:43;;;;;;;;;;;21.70;68.90;;;;;;7399036;19;19914;-74
2023/04/04 09:41:09;;;;;;;6.80;2.53;;;19.70;71.50;;;;;;7400570;19;19962;-73
2023/04/04 09:43:36;;;;;;;6.30;2.58;;;20.10;71.40;;;;;;7403931;19;19942;-74
2023/04/04 09:46:02;;;;;;;;;;;19.30;73.30;;;;;;7399585;19;19918;-73
2023/04/04 09:48:33;;;;;;;6.68;2.20;;;19.60;73.30;;;;;;7385559;19;19918;-76
2023/04/04 09:50:59;;;;;;;7.03;2.53;;;20.50;72.40;;;;;;7400707;19;20005;-74
2023/04/04 09:53:26;;;;;;;8.90;1.90;;;20.50;70.30;;;;;;7397320;19;19938;-74
2023/04/04 09:55:54;;;;;;;9.70;1.60;;;19.30;71.50;;;;;;7407300;19;20375;-74
2023/04/04 09:58:25;;;;;;;5.05;1.38;;;18.30;73.30;;;;;;7403526;19;19946;-72
2023/04/04 10:00:59;;;;;;;5.50;1.77;;;18.00;74.30;;;;;;7404886;19;19927;-75
2023/04/04 10:03:26;;;;;;;8.35;2.17;;;18.30;74.90;;;;;;7399311;19;19949;-74
2023/04/04 10:06:11;;;;;;;7.13;2.22;;;18.80;74.30;;;;;;7404152;19;20228;-73
2023/04/04 10:08:41;;;;;;;5.43;1.38;;;19.20;72.40;;;;;;7405495;19;19934;-73
2023/04/04 10:11:08;;;;;;;10.27;2.42;;;20.00;70.20;;;;;;7404808;19;20251;-73
2023/04/04 10:13:35;;;;;;;5.38;1.88;;;19.50;69.50;;;;;;7400007;19;19923;-73
2023/04/04 10:16:02;;;;;;;4.28;1.38;;;19.00;70.50;;;;;;7404608;19;19910;-74
2023/04/04 10:18:31;;;;;;;6.95;1.65;;;19.50;70.70;;;;;;7407433;19;19915;-73
2023/04/04 10:20:59;;;;;;;6.32;1.77;;;19.30;70.60;;;;;;7403439;19;19948;-74
2023/04/04 10:23:26;;;;;;;9.25;1.85;;;18.80;71.40;;;;;;7397220;19;19918;-73
2023/04/04 10:25:58;;;;;;;9.85;2.10;;;19.30;70.90;;;;;;7407308;19;19914;-73
2023/04/04 10:28:25;;;;;;;9.27;1.75;;;19.60;70.50;;;;;;7404013;19;19934;-74
2023/04/04 10:30:59;;;;;;;6.47;1.88;;;18.90;70.70;;;;;;7407213;19;19930;-74
2023/04/04 10:33:25;;;;;;;6.90;1.70;;;18.70;71.70;;;;;;7402670;19;19977;-73
2023/04/04 10:35:55;;;;;;;7.80;2.20;;;19.00;71.80;;;;;;7407486;19;20275;-73
2023/04/04 10:38:27;;;;;;;8.27;2.08;;;18.50;72.70;;;;;;7403504;19;19943;-73
2023/04/04 10:40:58;;;;;;;5.78;2.22;;;19.30;71.50;;;;;;7402917;19;19918;-73
2023/04/04 10:43:27;;;;;;;5.20;1.67;;;18.80;71.90;;;;;;7403967;19;20354;-73
2023/04/04 10:45:58;;;;;;;9.52;1.63;;;19.40;71.00;;;;;;7407145;19;19914;-73
2023/04/04 10:48:25;;;;;;;6.00;1.73;;;19.10;70.50;;;;;;7404771;19;19948;-74
2023/04/04 10:50:51;;;;;;;6.00;1.65;;;19.20;70.70;;;;;;7404044;19;19914;-74
2023/04/04 10:53:18;;;;;;;7.25;2.10;;;18.30;71.30;;;;;;7405178;19;19926;-74
2023/04/04 10:55:45;;;;;;;5.13;1.58;;;18.90;72.40;;;;;;7407088;19;20339;-73
2023/04/04 10:58:11;;;;;;;8.45;1.73;;;19.10;71.50;;;;;;7406440;19;19934;-73
2023/04/04 11:00:51;;;;;;;9.23;2.22;;;18.70;71.00;;;;;;7405360;19;19934;-73
2023/04/04 11:03:17;;;;;;;7.55;2.00;;;18.80;71.10;;;;;;7404280;19;20010;-73
2023/04/04 11:05:59;;;;;;;6.50;1.65;;;18.10;72.20;;;;;;7404424;19;19910;-75
2023/04/04 11:08:27;;;;;;;5.07;1.40;;;18.00;72.60;;;;;;7401884;19;19918;-73
2023/04/04 11:10:54;;;;;;;6.63;1.38;;;17.80;72.80;;;;;;7405819;19;19929;-73
2023/04/04 11:13:24;;;;;;;6.38;1.63;;;17.30;74.90;;;;;;7401262;19;19921;-73
2023/04/04 11:15:58;;;;;;;11.43;2.17;;;19.00;73.00;;;;;;7406105;19;20334;-73
2023/04/04 11:18:44;;;;;;;4.28;1.17;;;19.20;70.10;;;;;;7405527;19;19974;-73
2023/04/04 11:21:13;;;;;;;6.90;2.08;;;18.60;71.90;;;;;;7403797;19;19942;-74
2023/04/04 11:23:47;;;;;;;6.88;1.95;;;18.60;71.30;;;;;;7403925;19;19911;-74
2023/04/04 11:26:19;;;;;;;7.50;1.58;;;18.00;71.90;;;;;;7405530;19;19928;-73
2023/04/04 11:28:46;;;;;;;8.43;2.45;;;19.20;70.30;;;;;;7403261;19;19915;-73
2023/04/04 11:31:18;;;;;;;6.75;1.83;;;20.10;69.30;;;;;;7395045;19;19918;-73
2023/04/04 11:34:07;;;;;;;8.30;2.15;;;19.60;68.60;;;;;;7398237;19;19914;-73
2023/04/04 11:36:35;;;;;;;5.75;1.60;;;18.40;71.60;;;;;;7396155;19;19911;-72
2023/04/04 11:39:07;;;;;;;7.13;1.50;;;18.00;73.10;;;;;;7397137;19;19919;-73
2023/04/04 11:41:57;;;;;;;9.32;2.03;;;18.70;72.60;;;;;;7399206;19;19919;-73
2023/04/04 11:44:28;;;;;;;8.38;3.08;;;19.50;70.20;;;;;;7398910;19;20306;-74
2023/04/04 11:47:07;;;;;;;6.97;2.10;;;20.90;67.70;;;;;;7395400;19;19993;-72
2023/04/04 11:49:42;;;;;;;8.00;2.35;;;21.80;65.10;;;;;;7393507;19;19922;-73
2023/04/04 11:52:11;;;;;;;6.15;2.13;;;21.20;66.20;;;;;;7391427;19;20011;-73
2023/04/04 11:54:46;;;;;;;7.75;2.45;;;22.00;65.40;;;;;;7396675;19;19911;-74
2023/04/04 11:57:20;;;;;;;5.80;2.13;;;23.00;62.90;;;;;;7380753;19;19918;-73
2023/04/04 11:59:50;;;;;;;9.27;2.08;;;21.70;63.70;;;;;;7389179;19;19933;-72
2023/04/04 12:02:20;;;;;;;7.30;2.00;;;19.60;66.80;;;;;;7380560;19;20331;-73
2023/04/04 12:04:46;;;;;;;5.00;1.88;;;19.80;67.30;;;;;;7383364;19;19907;-72
2023/04/04 12:07:14;;;;;;;7.75;2.15;;;21.10;65.90;;;;;;7387570;19;19923;-73
2023/04/04 12:09:41;;;;;;;5.88;2.25;;;21.40;65.00;;;;;;7394052;19;20251;-72
2023/04/04 12:12:11;;;;;;;5.70;2.80;;;21.80;62.90;;;;;;7390693;19;20262;-73
2023/04/04 12:14:39;;;;;;;9.77;2.50;;;21.70;62.90;;;;;;7391801;19;19966;-73
2023/04/04 12:17:05;;;;;;;8.07;2.78;;;21.00;63.50;;;;;;7386543;19;19924;-73
2023/04/04 12:19:37;;;;;;;7.45;3.28;;;19.80;65.50;;;;;;7404408;19;20417;-73
2023/04/04 12:22:03;;;;;;;8.00;2.38;;;20.70;66.40;;;;;;7390425;19;19917;-74
2023/04/04 12:24:29;;;;;;;7.43;2.25;;;21.30;65.50;;;;;;7403147;19;20292;-74
2023/04/04 12:26:57;;;;;;;6.13;2.22;;;22.00;64.60;;;;;;7394214;19;19911;-73
2023/04/04 12:29:28;;;;;;;6.72;2.33;;;21.20;64.70;;;;;;7400724;19;19931;-73
2023/04/04 12:31:54;;;;;;;8.02;2.17;;;20.70;66.50;;;;;;7400829;19;19928;-72
2023/04/04 12:34:24;;;;;;;;;;;19.90;66.30;;;;;;7364853;19;20342;-73
2023/04/04 12:36:58;;;;;;;7.35;3.05;;;20.10;67.00;;;;;;7388066;19;20559;-73
2023/04/04 12:39:28;;;;;;;6.55;2.65;;;20.00;68.30;;;;;;7395414;19;19926;-73
2023/04/04 12:41:57;;;;;;;6.93;2.53;;;20.60;68.00;;;;;;7398411;19;19922;-73
2023/04/04 12:44:34;;;;;;;10.45;2.38;;;20.80;66.40;;;;;;7396493;19;19926;-74
2023/04/04 12:47:09;;;;;;;7.43;2.92;;;20.60;66.20;;;;;;7398839;19;19914;-74
2023/04/04 12:49:39;;;;;;;7.18;2.17;;;18.90;69.10;;;;;;7394915;19;20350;-71